Time;durP1;ratioP1;P1;durP2;ratioP2;P2;SDS_P1;SDS_P2;PMS_P1;PMS_P2;Temp;Humidity;BMP_temperature;BMP_pressure;BME280_temperature;BME280_humidity;BME280_pressure;Samples;Min_cycle;Max_cycle;Signal;HPM_P1;HPM_P2
2022/10/30 00:00:32;;;;;;;16.83;8.05;;;16.40;77.30;;;;;;4993882;28;20046;-74
2022/10/30 00:02:59;;;;;;;16.90;8.50;;;16.40;77.30;;;;;;4993676;28;20050;-74
2022/10/30 00:05:26;;;;;;;12.77;7.40;;;16.40;77.40;;;;;;5011669;28;20062;-74
2022/10/30 00:07:55;;;;;;;16.27;7.83;;;16.40;77.40;;;;;;4993696;28;20055;-74
2022/10/30 00:10:22;;;;;;;14.57;7.45;;;16.40;77.40;;;;;;5007125;28;20063;-75
2022/10/30 00:12:51;;;;;;;15.45;8.00;;;16.40;77.40;;;;;;5009035;28;20137;-74
2022/10/30 00:15:18;;;;;;;14.60;7.75;;;16.40;77.40;;;;;;4976088;28;20129;-74
2022/10/30 00:17:45;;;;;;;15.90;7.90;;;16.40;77.50;;;;;;5010995;28;20054;-74
2022/10/30 00:20:12;;;;;;;15.43;7.23;;;16.30;77.50;;;;;;4992781;28;20054;-74
2022/10/30 00:22:39;;;;;;;16.90;8.10;;;16.30;77.50;;;;;;5009325;28;20093;-74
2022/10/30 00:25:07;;;;;;;16.92;7.32;;;16.30;77.50;;;;;;5010516;28;20053;-74
2022/10/30 00:27:34;;;;;;;18.08;7.38;;;16.20;77.60;;;;;;5009966;28;20540;-74
2022/10/30 00:30:02;;;;;;;16.98;8.05;;;16.20;77.60;;;;;;5011834;28;20059;-74
2022/10/30 00:32:29;;;;;;;17.13;7.70;;;16.20;77.60;;;;;;4977461;28;20137;-74
2022/10/30 00:34:56;;;;;;;15.90;7.35;;;16.20;77.70;;;;;;4977598;28;20551;-74
2022/10/30 00:37:23;;;;;;;14.93;7.03;;;16.20;77.70;;;;;;5010330;28;20137;-74
2022/10/30 00:39:50;;;;;;;14.43;7.65;;;16.20;77.70;;;;;;4993963;28;20134;-74
2022/10/30 00:42:17;;;;;;;16.85;7.05;;;16.20;77.80;;;;;;4993812;28;20053;-74
2022/10/30 00:44:48;;;;;;;15.70;7.27;;;16.10;77.70;;;;;;4973101;28;20054;-74
2022/10/30 00:47:22;;;;;;;14.57;7.22;;;16.20;77.70;;;;;;4974515;28;20059;-74
2022/10/30 00:49:54;;;;;;;14.95;7.43;;;16.10;77.80;;;;;;4983018;28;20154;-74
2022/10/30 00:52:24;;;;;;;18.13;7.40;;;16.10;77.80;;;;;;4965303;28;20054;-74
2022/10/30 00:54:52;;;;;;;14.02;7.47;;;16.10;77.80;;;;;;4993936;28;20046;-74
2022/10/30 00:57:20;;;;;;;14.10;7.03;;;16.10;77.80;;;;;;4977881;28;21043;-74
2022/10/30 00:59:47;;;;;;;15.32;7.07;;;16.10;77.90;;;;;;5006436;28;20066;-74
2022/10/30 01:02:15;;;;;;;12.60;7.15;;;16.10;77.90;;;;;;5018612;28;20047;-74
2022/10/30 01:04:45;;;;;;;14.63;7.20;;;16.10;78.00;;;;;;5015024;28;20051;-74
2022/10/30 01:07:16;;;;;;;17.17;7.18;;;16.00;78.00;;;;;;4958003;28;20046;-74
2022/10/30 01:09:45;;;;;;;12.67;6.80;;;16.00;78.00;;;;;;4968231;28;20057;-74
2022/10/30 01:12:13;;;;;;;16.33;7.53;;;16.00;78.00;;;;;;5011163;28;20058;-74
2022/10/30 01:14:43;;;;;;;16.25;6.78;;;16.00;78.00;;;;;;5011065;28;20058;-74
2022/10/30 01:17:33;;;;;;;18.83;7.45;;;16.00;78.10;;;;;;4980285;28;20053;-74
2022/10/30 01:20:11;;;;;;;13.43;7.28;;;16.00;78.20;;;;;;4976731;28;20125;-74
2022/10/30 01:22:52;;;;;;;16.50;7.03;;;16.00;78.20;;;;;;4993298;28;20054;-74
2022/10/30 01:25:36;;;;;;;16.50;7.22;;;16.00;78.20;;;;;;5011150;28;20077;-74
2022/10/30 01:28:20;;;;;;;14.93;7.47;;;16.00;78.20;;;;;;4979768;28;20583;-74
2022/10/30 01:31:02;;;;;;;15.35;7.18;;;16.00;78.30;;;;;;4992684;28;20051;-74
2022/10/30 01:33:42;;;;;;;16.95;7.25;;;15.90;78.30;;;;;;4976458;28;20061;-74
2022/10/30 01:36:18;;;;;;;16.43;7.90;;;15.90;78.40;;;;;;4992347;28;20042;-74
2022/10/30 01:38:49;;;;;;;15.82;6.82;;;15.90;78.40;;;;;;4993292;28;20054;-74
2022/10/30 01:41:16;;;;;;;18.90;8.00;;;15.90;78.40;;;;;;4976783;28;20047;-75
2022/10/30 01:43:48;;;;;;;16.13;7.07;;;15.90;78.50;;;;;;4976688;28;20574;-74
2022/10/30 01:46:38;;;;;;;14.02;7.60;;;15.80;78.50;;;;;;4976546;28;20054;-74
2022/10/30 01:49:23;;;;;;;17.43;7.40;;;15.80;78.50;;;;;;4985986;28;20055;-75
2022/10/30 01:52:00;;;;;;;14.85;7.70;;;15.80;78.50;;;;;;4992987;28;20081;-74
2022/10/30 01:54:38;;;;;;;14.77;7.10;;;15.80;78.60;;;;;;4992821;28;20137;-74
2022/10/30 01:57:12;;;;;;;14.10;7.05;;;15.80;78.60;;;;;;4976608;28;20043;-74
2022/10/30 01:59:45;;;;;;;16.00;7.78;;;15.80;78.60;;;;;;4976559;28;20056;-74
2022/10/30 02:02:14;;;;;;;14.17;7.03;;;15.80;78.60;;;;;;4991758;28;20133;-74
2022/10/30 02:04:41;;;;;;;18.38;7.22;;;15.80;78.60;;;;;;4992584;28;20132;-74
2022/10/30 02:07:10;;;;;;;16.90;7.40;;;15.80;78.60;;;;;;4976342;28;20078;-74
2022/10/30 02:09:43;;;;;;;16.13;7.63;;;15.80;78.70;;;;;;4974573;28;20061;-74
2022/10/30 02:12:13;;;;;;;15.52;7.55;;;15.80;78.70;;;;;;5005551;28;20146;-74
2022/10/30 02:14:44;;;;;;;14.33;7.47;;;15.80;78.70;;;;;;4973165;28;20578;-74
2022/10/30 02:17:11;;;;;;;14.02;7.40;;;15.80;78.70;;;;;;4978340;28;20053;-74
2022/10/30 02:19:39;;;;;;;17.70;7.95;;;15.70;78.80;;;;;;4992621;28;20054;-74
2022/10/30 02:22:07;;;;;;;19.20;7.65;;;15.70;78.80;;;;;;4992375;28;20077;-74
2022/10/30 02:24:34;;;;;;;15.73;7.40;;;15.70;78.80;;;;;;4976268;28;20047;-74
2022/10/30 02:27:01;;;;;;;17.77;7.47;;;15.60;78.80;;;;;;4974844;28;20042;-74
2022/10/30 02:29:28;;;;;;;14.23;7.25;;;15.60;78.70;;;;;;4992624;28;20132;-74
2022/10/30 02:31:55;;;;;;;15.00;7.57;;;15.60;78.70;;;;;;4988909;28;20121;-74
2022/10/30 02:34:23;;;;;;;15.07;7.30;;;15.60;78.70;;;;;;4961377;28;20571;-74
2022/10/30 02:36:50;;;;;;;14.65;7.82;;;15.60;78.80;;;;;;4972651;28;20051;-74
2022/10/30 02:39:20;;;;;;;17.53;7.77;;;15.60;78.80;;;;;;4988949;28;20129;-74
2022/10/30 02:41:47;;;;;;;18.13;7.72;;;15.60;78.90;;;;;;4996075;28;20051;-74
2022/10/30 02:44:14;;;;;;;13.82;7.10;;;15.60;79.00;;;;;;4985097;28;20050;-74
2022/10/30 02:46:41;;;;;;;16.73;7.97;;;15.60;79.00;;;;;;4992487;28;20054;-74
2022/10/30 02:49:08;;;;;;;14.90;7.57;;;15.60;79.00;;;;;;4992322;28;20061;-74
2022/10/30 02:51:36;;;;;;;15.40;7.70;;;15.50;79.00;;;;;;4992224;28;20088;-74
2022/10/30 02:54:03;;;;;;;14.98;7.50;;;15.50;79.10;;;;;;4992402;28;20093;-74
2022/10/30 02:56:32;;;;;;;14.35;7.50;;;15.50;79.00;;;;;;4976045;28;20054;-74
2022/10/30 02:59:00;;;;;;;14.50;7.60;;;15.50;79.10;;;;;;4975905;28;20109;-74
2022/10/30 03:01:28;;;;;;;13.80;7.38;;;15.50;79.10;;;;;;4970726;28;20466;-74
2022/10/30 03:04:16;;;;;;;15.03;7.43;;;15.40;79.10;;;;;;4973573;28;20074;-74
2022/10/30 03:06:43;;;;;;;16.52;7.93;;;15.40;79.10;;;;;;5007299;28;20068;-74
2022/10/30 03:09:10;;;;;;;17.58;7.80;;;15.40;79.20;;;;;;5007981;28;20145;-74
2022/10/30 03:11:39;;;;;;;16.77;8.15;;;15.40;79.20;;;;;;5009524;28;20141;-74
2022/10/30 03:14:06;;;;;;;17.73;7.63;;;15.40;79.20;;;;;;4978479;28;20055;-74
2022/10/30 03:16:33;;;;;;;18.03;7.60;;;15.40;79.20;;;;;;4978844;28;20054;-74
2022/10/30 03:19:00;;;;;;;16.80;7.93;;;15.30;79.20;;;;;;4993976;28;20094;-74
2022/10/30 03:21:28;;;;;;;16.92;8.63;;;15.30;79.20;;;;;;5011491;28;20416;-74
2022/10/30 03:23:55;;;;;;;15.32;8.00;;;15.30;79.30;;;;;;4995197;28;20138;-74
2022/10/30 03:26:23;;;;;;;16.08;7.93;;;15.30;79.30;;;;;;4995089;28;20137;-74
2022/10/30 03:29:06;;;;;;;19.57;8.37;;;15.30;79.30;;;;;;4995020;28;20050;-74
2022/10/30 03:31:33;;;;;;;18.17;8.02;;;15.20;79.30;;;;;;4995142;28;20049;-74
2022/10/30 03:34:30;;;;;;;16.83;7.95;;;15.20;79.30;;;;;;5003749;28;20054;-74
2022/10/30 03:36:59;;;;;;;17.10;7.70;;;15.20;79.30;;;;;;4995332;28;20046;-74
2022/10/30 03:39:26;;;;;;;16.35;7.43;;;15.20;79.30;;;;;;5011114;28;20062;-74
2022/10/30 03:41:53;;;;;;;16.40;7.90;;;15.20;79.30;;;;;;4978677;28;20046;-74
2022/10/30 03:44:22;;;;;;;13.00;7.25;;;15.10;79.30;;;;;;4978358;28;20042;-74
2022/10/30 03:46:49;;;;;;;18.27;7.80;;;15.10;79.30;;;;;;4978569;28;20121;-74
2022/10/30 03:49:36;;;;;;;18.67;8.07;;;15.00;79.30;;;;;;4994086;28;20053;-74
2022/10/30 03:52:09;;;;;;;14.65;7.05;;;15.00;79.40;;;;;;4974180;28;20054;-74
2022/10/30 03:54:36;;;;;;;13.57;6.90;;;15.00;79.40;;;;;;4994348;28;20053;-74
2022/10/30 03:57:03;;;;;;;16.23;7.82;;;15.00;79.50;;;;;;4975305;28;20635;-74
2022/10/30 03:59:40;;;;;;;15.27;7.70;;;15.00;79.50;;;;;;5007221;28;20088;-74
2022/10/30 04:02:27;;;;;;;15.13;7.47;;;14.90;79.60;;;;;;4958837;28;20082;-74
2022/10/30 04:04:54;;;;;;;14.88;6.90;;;14.90;79.60;;;;;;4963783;28;20106;-74
2022/10/30 04:07:21;;;;;;;15.93;7.23;;;14.90;79.70;;;;;;4991626;28;20519;-74
2022/10/30 04:09:48;;;;;;;13.32;7.50;;;14.90;79.70;;;;;;4998843;28;20503;-74
2022/10/30 04:12:15;;;;;;;16.63;7.43;;;14.80;79.60;;;;;;5024244;28;20058;-74
2022/10/30 04:14:44;;;;;;;17.10;7.70;;;14.80;79.70;;;;;;5007880;28;20129;-74
2022/10/30 04:17:11;;;;;;;17.05;7.15;;;14.80;79.70;;;;;;4978206;28;20053;-74
2022/10/30 04:19:38;;;;;;;15.37;7.57;;;14.80;79.70;;;;;;4993969;28;20505;-74
2022/10/30 04:22:08;;;;;;;13.98;7.32;;;14.80;79.70;;;;;;4978278;28;20086;-74
2022/10/30 04:24:38;;;;;;;18.10;7.85;;;14.70;79.70;;;;;;4977283;28;20046;-74
2022/10/30 04:27:05;;;;;;;15.55;7.03;;;14.70;79.80;;;;;;4976837;28;20054;-74
2022/10/30 04:29:32;;;;;;;16.30;7.20;;;14.70;79.90;;;;;;4993866;28;20045;-74
2022/10/30 04:32:01;;;;;;;16.00;7.83;;;14.70;80.00;;;;;;4993950;28;20370;-74
2022/10/30 04:34:28;;;;;;;17.35;8.27;;;14.70;80.00;;;;;;4977374;28;20065;-74
2022/10/30 04:36:55;;;;;;;15.02;7.68;;;14.60;80.00;;;;;;4977713;28;20445;-74
2022/10/30 04:39:22;;;;;;;15.27;7.07;;;14.60;80.00;;;;;;4974309;28;20149;-74
2022/10/30 04:41:53;;;;;;;14.05;7.70;;;14.60;80.10;;;;;;4974715;28;20051;-74
2022/10/30 04:44:28;;;;;;;18.10;7.70;;;14.50;80.10;;;;;;5010698;28;20054;-74
2022/10/30 04:46:55;;;;;;;13.60;7.25;;;14.50;80.10;;;;;;4994143;28;20110;-74
2022/10/30 04:49:25;;;;;;;15.80;7.72;;;14.50;80.10;;;;;;4977407;28;20443;-74
2022/10/30 04:51:52;;;;;;;17.00;7.70;;;14.50;80.10;;;;;;4977591;28;20992;-74
2022/10/30 04:54:21;;;;;;;16.38;7.53;;;14.50;80.10;;;;;;4990551;28;20055;-74
2022/10/30 04:56:49;;;;;;;15.57;7.63;;;14.40;80.30;;;;;;4973797;28;20050;-74
2022/10/30 04:59:16;;;;;;;17.77;8.00;;;14.40;80.30;;;;;;4991708;28;20054;-74
2022/10/30 05:01:44;;;;;;;18.70;7.80;;;14.40;80.30;;;;;;4992613;28;20053;-74
2022/10/30 05:04:11;;;;;;;16.13;7.72;;;14.40;80.30;;;;;;4988733;28;20050;-74
2022/10/30 05:06:42;;;;;;;17.77;7.88;;;14.40;80.30;;;;;;4956792;28;20698;-74
2022/10/30 05:09:09;;;;;;;18.17;8.30;;;14.40;80.30;;;;;;4973933;28;20161;-74
2022/10/30 05:11:40;;;;;;;19.92;8.35;;;14.40;80.30;;;;;;4992182;28;20160;-74
2022/10/30 05:14:08;;;;;;;15.77;7.43;;;14.30;80.40;;;;;;4975724;28;20058;-74
2022/10/30 05:16:35;;;;;;;14.30;7.40;;;14.30;80.40;;;;;;4991351;28;20061;-74
2022/10/30 05:19:04;;;;;;;15.35;7.63;;;14.30;80.50;;;;;;4993691;28;20820;-74
2022/10/30 05:21:33;;;;;;;13.13;7.67;;;14.30;80.50;;;;;;4977525;28;20054;-74
2022/10/30 05:24:02;;;;;;;15.10;8.10;;;14.30;80.70;;;;;;4993374;28;20054;-74
2022/10/30 05:26:36;;;;;;;14.57;7.95;;;14.30;80.70;;;;;;4976599;28;20046;-74
2022/10/30 05:29:03;;;;;;;13.95;7.60;;;14.20;80.80;;;;;;4977124;28;20494;-74
2022/10/30 05:31:31;;;;;;;16.92;7.63;;;14.20;80.80;;;;;;4977001;28;20137;-74
2022/10/30 05:34:16;;;;;;;13.77;7.60;;;14.20;80.80;;;;;;5008306;28;20058;-74
2022/10/30 05:36:45;;;;;;;18.33;7.65;;;14.20;80.90;;;;;;4976987;28;20137;-74
2022/10/30 05:39:16;;;;;;;16.75;7.38;;;14.20;80.90;;;;;;4992873;28;20050;-74
2022/10/30 05:41:47;;;;;;;15.68;8.07;;;14.20;81.00;;;;;;4992911;28;20558;-74
2022/10/30 05:44:14;;;;;;;17.00;8.48;;;14.20;81.10;;;;;;4993299;28;20160;-74
2022/10/30 05:46:44;;;;;;;20.23;7.80;;;14.20;81.10;;;;;;4976724;28;20050;-74
2022/10/30 05:49:27;;;;;;;16.40;8.02;;;14.20;81.20;;;;;;4992843;28;20133;-74
2022/10/30 05:51:54;;;;;;;13.70;7.38;;;14.10;81.20;;;;;;5045872;22;20090;-74
2022/10/30 05:54:23;;;;;;;12.90;7.60;;;14.10;81.40;;;;;;5051516;28;20053;-74
2022/10/30 05:57:03;;;;;;;16.45;8.38;;;14.10;81.50;;;;;;5068838;28;20053;-74
2022/10/30 05:59:33;;;;;;;16.90;7.60;;;14.10;81.50;;;;;;5054858;28;20041;-75
2022/10/30 06:02:00;;;;;;;16.23;8.05;;;14.10;81.60;;;;;;5035011;28;20505;-74
2022/10/30 06:04:27;;;;;;;18.63;8.50;;;14.10;81.60;;;;;;5035174;28;20048;-74
2022/10/30 06:06:54;;;;;;;15.40;7.68;;;14.10;81.60;;;;;;5035247;28;20049;-74
2022/10/30 06:09:23;;;;;;;19.77;8.23;;;14.10;81.60;;;;;;5050501;28;21000;-74
2022/10/30 06:12:10;;;;;;;17.63;8.20;;;14.10;81.70;;;;;;5035036;28;20041;-74
2022/10/30 06:14:51;;;;;;;18.00;8.48;;;14.10;81.70;;;;;;5034877;28;20537;-74
2022/10/30 06:17:18;;;;;;;19.45;8.65;;;14.10;81.80;;;;;;5058129;28;20076;-74
2022/10/30 06:20:00;;;;;;;16.58;7.63;;;14.10;81.90;;;;;;5055048;28;20159;-74
2022/10/30 06:22:55;;;;;;;17.55;7.20;;;14.10;81.70;;;;;;5051887;28;20198;-74
2022/10/30 06:25:29;;;;;;;16.10;7.77;;;14.00;81.40;;;;;;5030944;28;20593;-74
2022/10/30 06:28:01;;;;;;;19.20;8.38;;;13.90;81.40;;;;;;5015708;28;20046;-74
2022/10/30 06:30:31;;;;;;;18.30;8.52;;;13.90;81.40;;;;;;5023661;28;20507;-74
2022/10/30 06:32:59;;;;;;;17.30;8.10;;;13.90;81.50;;;;;;5020333;28;20046;-74
2022/10/30 06:35:27;;;;;;;17.45;8.40;;;13.90;81.50;;;;;;5037602;28;20050;-74
2022/10/30 06:37:57;;;;;;;17.40;8.40;;;13.90;81.60;;;;;;5031854;28;20060;-74
2022/10/30 06:40:25;;;;;;;18.52;8.27;;;13.90;81.80;;;;;;5054978;28;20063;-74
2022/10/30 06:42:54;;;;;;;17.63;8.57;;;13.90;81.90;;;;;;5057203;28;20053;-74
2022/10/30 06:45:35;;;;;;;18.65;8.93;;;13.90;82.00;;;;;;5023229;28;20445;-74
2022/10/30 06:48:03;;;;;;;17.02;8.73;;;13.90;82.10;;;;;;5035016;28;20095;-74
2022/10/30 06:50:35;;;;;;;18.90;8.13;;;13.90;82.20;;;;;;5037519;28;20081;-74
2022/10/30 06:53:02;;;;;;;18.65;8.77;;;13.90;82.20;;;;;;5072296;28;20128;-74
2022/10/30 06:55:29;;;;;;;15.90;8.32;;;13.90;82.20;;;;;;5059273;28;20481;-74
2022/10/30 06:58:23;;;;;;;17.67;8.23;;;13.90;82.20;;;;;;5050143;28;20048;-74
2022/10/30 07:01:05;;;;;;;14.13;7.78;;;13.90;82.30;;;;;;5067954;28;20041;-74
2022/10/30 07:03:51;;;;;;;19.23;8.57;;;13.90;82.40;;;;;;5067518;28;20144;-74
2022/10/30 07:06:18;;;;;;;14.90;8.13;;;13.90;82.40;;;;;;5058386;28;20048;-74
2022/10/30 07:08:46;;;;;;;18.85;8.40;;;13.80;82.50;;;;;;5036824;28;20163;-74
2022/10/30 07:11:14;;;;;;;16.40;8.57;;;13.80;82.60;;;;;;5054032;28;20089;-74
2022/10/30 07:14:03;;;;;;;17.95;8.75;;;13.80;82.60;;;;;;5051110;28;20052;-74
2022/10/30 07:16:35;;;;;;;17.07;9.53;;;13.80;82.70;;;;;;5044718;28;20517;-74
2022/10/30 07:19:03;;;;;;;17.98;9.05;;;13.80;82.70;;;;;;5045499;28;20665;-74
2022/10/30 07:21:30;;;;;;;17.92;9.27;;;13.80;82.70;;;;;;5070500;28;20499;-74
2022/10/30 07:23:57;;;;;;;17.77;9.27;;;13.90;82.80;;;;;;5067185;28;20534;-74
2022/10/30 07:26:32;;;;;;;14.65;8.27;;;13.90;82.80;;;;;;5068600;28;20060;-74
2022/10/30 07:29:05;;;;;;;15.53;8.03;;;13.90;82.90;;;;;;5053901;28;20406;-74
2022/10/30 07:31:43;;;;;;;18.80;8.05;;;13.80;82.90;;;;;;5070833;28;20052;-74
2022/10/30 07:34:12;;;;;;;14.23;7.90;;;13.90;82.90;;;;;;5048326;28;20670;-74
2022/10/30 07:37:02;;;;;;;15.88;8.05;;;13.80;82.80;;;;;;5051649;28;20107;-73
2022/10/30 07:39:49;;;;;;;17.35;8.25;;;13.90;82.80;;;;;;5064697;28;20053;-73
2022/10/30 07:42:27;;;;;;;16.77;9.53;;;13.90;82.70;;;;;;5053735;28;20060;-74
2022/10/30 07:45:14;;;;;;;20.83;9.13;;;13.90;82.80;;;;;;5052575;28;20526;-74
2022/10/30 07:48:16;;;;;;;16.00;8.52;;;13.90;82.90;;;;;;5065217;28;20053;-74
2022/10/30 07:50:54;;;;;;;20.67;9.10;;;13.90;83.20;;;;;;5046700;28;20045;-74
2022/10/30 07:53:21;;;;;;;21.95;10.23;;;13.90;83.20;;;;;;5047129;28;20037;-74
2022/10/30 07:55:49;;;;;;;21.57;9.43;;;13.90;83.20;;;;;;5077395;28;20584;-73
2022/10/30 07:58:36;;;;;;;18.85;9.30;;;13.90;83.20;;;;;;5050982;28;20052;-74
2022/10/30 08:01:36;;;;;;;18.67;10.20;;;13.90;83.20;;;;;;5035152;28;20064;-74
2022/10/30 08:04:27;;;;;;;22.27;9.93;;;13.90;83.30;;;;;;5049331;28;20111;-74
2022/10/30 08:06:59;;;;;;;20.17;10.40;;;13.90;83.40;;;;;;5035522;28;20041;-74
2022/10/30 08:09:26;;;;;;;21.80;11.63;;;14.00;83.40;;;;;;5059623;28;20052;-73
2022/10/30 08:11:53;;;;;;;17.48;10.40;;;14.00;83.50;;;;;;5036720;28;20798;-74
2022/10/30 08:14:20;;;;;;;21.35;10.98;;;14.00;83.60;;;;;;5058563;28;20134;-74
2022/10/30 08:16:50;;;;;;;21.45;11.10;;;14.10;83.60;;;;;;5051040;28;20048;-73
2022/10/30 08:19:18;;;;;;;21.48;12.20;;;14.10;83.80;;;;;;5073083;28;20087;-73
2022/10/30 08:21:45;;;;;;;21.87;11.43;;;14.10;83.70;;;;;;5043869;28;20158;-74
2022/10/30 08:24:17;;;;;;;21.20;11.75;;;14.20;83.80;;;;;;5036695;28;20057;-74
2022/10/30 08:26:46;;;;;;;22.63;12.55;;;14.20;83.90;;;;;;5048231;28;20049;-74
2022/10/30 08:29:14;;;;;;;21.08;11.15;;;14.20;83.90;;;;;;5032912;28;20588;-74
2022/10/30 08:31:42;;;;;;;21.85;11.60;;;14.20;84.00;;;;;;5036971;28;20048;-74
2022/10/30 08:34:26;;;;;;;21.27;11.30;;;14.30;84.10;;;;;;5071090;28;20130;-74
2022/10/30 08:36:55;;;;;;;21.98;12.18;;;14.30;84.10;;;;;;5046150;28;20044;-73
2022/10/30 08:39:23;;;;;;;22.73;12.80;;;14.40;84.20;;;;;;5038761;28;20052;-74
2022/10/30 08:41:58;;;;;;;20.75;11.80;;;14.40;84.30;;;;;;5035251;28;20100;-74
2022/10/30 08:44:27;;;;;;;24.20;12.55;;;14.40;84.30;;;;;;5033980;28;20049;-74
2022/10/30 08:47:13;;;;;;;19.90;11.77;;;14.50;84.40;;;;;;5038935;28;20056;-74
2022/10/30 08:49:41;;;;;;;25.00;12.27;;;14.50;84.40;;;;;;5050331;28;20132;-74
2022/10/30 08:52:10;;;;;;;23.23;12.85;;;14.60;84.50;;;;;;5035213;28;20495;-75
2022/10/30 08:54:38;;;;;;;23.10;12.48;;;14.60;84.50;;;;;;5035187;28;20528;-75
2022/10/30 08:57:06;;;;;;;23.35;12.38;;;14.60;84.60;;;;;;5064708;28;20543;-74
2022/10/30 08:59:33;;;;;;;21.03;12.20;;;14.70;84.60;;;;;;5038262;28;20056;-74
2022/10/30 09:02:01;;;;;;;22.55;12.63;;;14.70;84.60;;;;;;5041613;28;20045;-74
2022/10/30 09:04:48;;;;;;;20.92;11.77;;;14.80;84.60;;;;;;5066322;28;20060;-73
2022/10/30 09:07:45;;;;;;;27.50;12.13;;;14.80;84.60;;;;;;5033836;28;20095;-74
2022/10/30 09:10:42;;;;;;;22.17;12.63;;;14.90;84.70;;;;;;5054536;28;20111;-74
2022/10/30 09:13:10;;;;;;;25.27;11.80;;;14.90;84.80;;;;;;5073383;28;20056;-73
2022/10/30 09:15:37;;;;;;;18.65;11.30;;;15.00;84.90;;;;;;5068448;28;20100;-74
2022/10/30 09:18:06;;;;;;;23.83;12.57;;;15.00;84.90;;;;;;5047794;28;20055;-73
2022/10/30 09:20:34;;;;;;;25.55;12.00;;;15.00;84.90;;;;;;5056348;28;20095;-73
2022/10/30 09:23:02;;;;;;;23.02;11.70;;;15.10;85.00;;;;;;5069678;28;20049;-74
2022/10/30 09:25:29;;;;;;;25.47;12.07;;;15.20;85.00;;;;;;5068870;28;20455;-74
2022/10/30 09:28:06;;;;;;;25.00;12.18;;;15.30;85.00;;;;;;5052318;28;20077;-76
2022/10/30 09:30:51;;;;;;;22.17;11.60;;;15.30;85.10;;;;;;5050610;28;20159;-76
2022/10/30 09:33:19;;;;;;;26.33;12.07;;;15.40;85.00;;;;;;5035077;28;20489;-74
2022/10/30 09:36:11;;;;;;;23.77;11.40;;;15.40;85.00;;;;;;5072536;28;20586;-74
2022/10/30 09:38:39;;;;;;;20.50;12.00;;;15.50;84.90;;;;;;5068411;28;20052;-73
2022/10/30 09:41:34;;;;;;;22.17;10.88;;;15.60;85.00;;;;;;5050313;28;20041;-74
2022/10/30 09:44:13;;;;;;;20.55;11.73;;;15.60;85.00;;;;;;5053978;28;20049;-74
2022/10/30 09:46:54;;;;;;;21.08;11.88;;;15.70;85.00;;;;;;5058719;28;20076;-74
2022/10/30 09:49:36;;;;;;;20.10;10.93;;;15.80;85.00;;;;;;5057829;28;20164;-75
2022/10/30 09:52:21;;;;;;;23.53;11.40;;;15.80;85.00;;;;;;5038687;28;20081;-74
2022/10/30 09:55:28;;;;;;;20.98;11.32;;;15.90;85.10;;;;;;5040579;28;20049;-74
2022/10/30 09:58:04;;;;;;;19.63;10.30;;;16.00;85.10;;;;;;5022296;28;20047;-75
2022/10/30 10:00:38;;;;;;;19.60;10.48;;;16.00;85.00;;;;;;5043967;28;20045;-75
2022/10/30 10:03:26;;;;;;;18.77;10.60;;;16.10;85.00;;;;;;5049508;28;20399;-75
2022/10/30 10:06:24;;;;;;;20.97;10.20;;;16.20;85.00;;;;;;5011714;28;20159;-75
2022/10/30 10:09:18;;;;;;;19.90;10.20;;;16.40;84.90;;;;;;5063566;28;20092;-75
2022/10/30 10:11:55;;;;;;;19.48;9.55;;;16.40;84.80;;;;;;5057107;28;20049;-75
2022/10/30 10:14:27;;;;;;;22.67;10.40;;;16.50;84.70;;;;;;5069561;28;20503;-76
2022/10/30 10:16:55;;;;;;;18.48;9.25;;;16.60;84.60;;;;;;5058403;28;20128;-75
2022/10/30 10:19:28;;;;;;;19.03;9.13;;;16.70;84.40;;;;;;5060086;28;20075;-76
2022/10/30 10:21:58;;;;;;;20.25;9.13;;;16.80;84.20;;;;;;5058766;28;20045;-75
2022/10/30 10:24:30;;;;;;;16.85;9.05;;;16.90;84.00;;;;;;5075980;28;20089;-76
2022/10/30 10:27:04;;;;;;;20.90;9.60;;;17.00;83.90;;;;;;5065407;28;20882;-76
2022/10/30 10:29:46;;;;;;;19.35;9.45;;;17.00;83.70;;;;;;5074497;28;20057;-75
2022/10/30 10:32:34;;;;;;;19.23;9.07;;;17.20;83.60;;;;;;5069270;28;20200;-76
2022/10/30 10:35:32;;;;;;;17.45;8.65;;;17.20;83.40;;;;;;5059828;28;20048;-76
2022/10/30 10:38:07;;;;;;;18.55;9.00;;;17.40;83.30;;;;;;5009240;28;20053;-75
2022/10/30 10:40:50;;;;;;;16.92;9.07;;;17.50;83.20;;;;;;5066089;28;20420;-75
2022/10/30 10:43:27;;;;;;;17.85;9.10;;;17.50;83.20;;;;;;5058822;28;20588;-75
2022/10/30 10:46:13;;;;;;;14.37;8.97;;;17.60;83.00;;;;;;5052933;28;20057;-75
2022/10/30 10:48:57;;;;;;;18.55;9.75;;;17.80;82.70;;;;;;5032079;28;20065;-75
2022/10/30 10:51:29;;;;;;;21.25;10.23;;;17.90;82.40;;;;;;5070066;28;20044;-75
2022/10/30 10:54:00;;;;;;;19.70;10.50;;;18.00;82.10;;;;;;5063749;28;20041;-75
2022/10/30 10:56:33;;;;;;;15.90;10.18;;;18.10;81.90;;;;;;5048068;28;20052;-77
2022/10/30 10:59:04;;;;;;;19.33;10.23;;;18.10;81.60;;;;;;5048373;28;20049;-74
2022/10/30 11:01:37;;;;;;;20.23;10.60;;;18.20;81.50;;;;;;5046339;28;20413;-77
2022/10/30 11:04:10;;;;;;;18.33;10.15;;;18.30;81.30;;;;;;5049200;28;20621;-75
2022/10/30 11:06:40;;;;;;;21.70;11.40;;;18.40;81.20;;;;;;5068112;28;20057;-75
2022/10/30 11:09:18;;;;;;;17.23;10.65;;;18.50;81.10;;;;;;5067081;28;20132;-75
2022/10/30 11:11:47;;;;;;;22.37;11.17;;;18.60;80.90;;;;;;5072016;28;20095;-75
2022/10/30 11:14:17;;;;;;;21.35;11.18;;;18.60;80.70;;;;;;5050965;28;20041;-75
2022/10/30 11:17:01;;;;;;;22.38;11.80;;;18.70;80.40;;;;;;5050847;28;20053;-75
2022/10/30 11:19:30;;;;;;;22.23;11.63;;;18.80;80.20;;;;;;5047151;28;20056;-75
2022/10/30 11:21:58;;;;;;;22.45;10.73;;;18.80;80.00;;;;;;5051623;28;20542;-74
2022/10/30 11:24:28;;;;;;;20.43;10.90;;;18.90;79.70;;;;;;5050605;28;20869;-75
2022/10/30 11:26:58;;;;;;;17.73;10.80;;;18.90;79.60;;;;;;5052957;28;20972;-76
2022/10/30 11:29:29;;;;;;;18.40;10.20;;;19.00;79.40;;;;;;5049156;28;20668;-76
2022/10/30 11:32:01;;;;;;;18.33;9.20;;;19.10;79.30;;;;;;5068657;28;20049;-75
2022/10/30 11:34:33;;;;;;;21.83;10.00;;;19.10;79.30;;;;;;5052286;28;20045;-75
2022/10/30 11:37:00;;;;;;;19.60;9.93;;;19.20;79.20;;;;;;5072023;28;20056;-75
2022/10/30 11:39:30;;;;;;;19.42;9.35;;;19.20;79.10;;;;;;5072135;28;20079;-75
2022/10/30 11:42:02;;;;;;;18.25;9.63;;;19.30;79.10;;;;;;5072595;28;20081;-75
2022/10/30 11:44:33;;;;;;;19.27;9.23;;;19.30;79.30;;;;;;5072887;28;20049;-75
2022/10/30 11:47:01;;;;;;;19.92;9.43;;;19.40;79.30;;;;;;4893548;28;22055;-75
2022/10/30 11:49:37;;;;;;;18.27;8.87;;;19.50;79.20;;;;;;5009490;28;20046;-75
2022/10/30 11:52:06;;;;;;;13.93;8.25;;;19.60;79.00;;;;;;5015993;28;20111;-75
2022/10/30 11:54:37;;;;;;;16.23;8.45;;;19.70;78.80;;;;;;5030489;28;20084;-75
2022/10/30 11:57:20;;;;;;;16.80;8.63;;;19.70;78.20;;;;;;5031585;28;20050;-75
2022/10/30 11:59:50;;;;;;;17.27;8.45;;;19.80;77.90;;;;;;5032442;28;20041;-75
2022/10/30 12:02:25;;;;;;;16.77;8.77;;;19.90;77.70;;;;;;5018136;28;20052;-75
2022/10/30 12:04:53;;;;;;;16.63;7.97;;;19.90;77.30;;;;;;5012694;28;20041;-75
2022/10/30 12:07:26;;;;;;;14.15;7.63;;;20.00;77.00;;;;;;5015223;28;20523;-76
2022/10/30 12:09:53;;;;;;;16.08;7.45;;;20.00;76.60;;;;;;5029386;28;20049;-76
2022/10/30 12:12:30;;;;;;;14.48;7.72;;;20.00;76.50;;;;;;5048735;28;20045;-75
2022/10/30 12:15:09;;;;;;;17.20;8.20;;;20.00;76.00;;;;;;5047654;28;20060;-75
2022/10/30 12:17:38;;;;;;;15.90;8.10;;;20.10;75.90;;;;;;5029498;28;20054;-75
2022/10/30 12:20:07;;;;;;;14.05;6.82;;;20.10;75.80;;;;;;5016198;28;20053;-75
2022/10/30 12:22:35;;;;;;;14.85;7.05;;;20.10;75.80;;;;;;5032442;28;20545;-76
2022/10/30 12:25:05;;;;;;;14.80;7.70;;;20.10;75.70;;;;;;5031287;28;20069;-75
2022/10/30 12:27:37;;;;;;;14.83;7.53;;;20.10;75.70;;;;;;5013339;28;20137;-75
2022/10/30 12:30:08;;;;;;;17.20;7.45;;;20.10;75.50;;;;;;5049984;28;20076;-75
2022/10/30 12:32:46;;;;;;;15.88;8.20;;;20.10;75.40;;;;;;5050308;28;20151;-75
2022/10/30 12:35:27;;;;;;;16.67;7.80;;;20.20;75.20;;;;;;5028383;28;20054;-75
2022/10/30 12:37:56;;;;;;;14.18;7.40;;;20.20;75.10;;;;;;5031211;28;20144;-75
2022/10/30 12:40:27;;;;;;;14.33;6.97;;;20.20;75.10;;;;;;5029629;28;20060;-76
2022/10/30 12:43:00;;;;;;;14.63;6.82;;;20.20;75.10;;;;;;5029825;28;20518;-76
2022/10/30 12:45:32;;;;;;;12.02;6.30;;;20.30;75.00;;;;;;5024639;28;20057;-75
2022/10/30 12:48:07;;;;;;;14.82;6.38;;;20.30;75.10;;;;;;4996124;28;20052;-75
2022/10/30 12:50:40;;;;;;;13.77;6.40;;;20.30;75.10;;;;;;5050632;28;20057;-75
2022/10/30 12:53:17;;;;;;;13.50;6.60;;;20.30;75.10;;;;;;5029960;28;20132;-75
2022/10/30 12:55:48;;;;;;;12.65;6.20;;;20.30;75.20;;;;;;5044835;28;20546;-75
2022/10/30 12:58:23;;;;;;;12.38;5.78;;;20.30;75.20;;;;;;5032521;28;20057;-76
2022/10/30 13:00:56;;;;;;;13.82;5.80;;;20.30;75.10;;;;;;5029413;28;20539;-76
2022/10/30 13:03:31;;;;;;;12.95;6.32;;;20.30;75.00;;;;;;5046748;28;20069;-75